Terminal Aerodrome Forecast
Issued by NWS

Home | Current Version | Previous Version | Text Only | Print | Product List | Glossary On
Versions: 1 2 3 4 5 6 7 8 9 10 11 12 13 14 15 16 17 18 19 20 21 22 23 24 25 26 27
000
FTUS42 KEYW 290500
TAFMTH
TAF
KMTH 290523Z 2906/3006 00000KT P6SM SCT025
      TEMPO 2906/2907 VRB08KT 3SM SHRA BKN025 OVC050
     FM291300 28005KT P6SM SCT025=

USA.gov is the U.S. government's official web portal to all federal, state and local government web resources and services.